Aspermont, TX

2:49 AM CDT on August 01, 2014 (GMT -0500)
WT_Meso Aspermont 3NE (MASST2) Elev 1740 ft | 33.17 °N, 100.20 °W | Change Station

Current weather conditions updated 54 minutes ago

Clear
Clear
64 °F
Feels Like 64 °F
N
1
Wind Variable Wind from WSW
Gusts 2.0 mph

Today is forecast to be Much Warmer than yesterday.

Today
High -- | Low -- °F
--% Chance of Precip.
Yesterday
High -- | Low -- °F
Precip. -- in
6:54 AM 8:40 PM
Waxing Crescent, 24% visible
Pressure 30.16 in
Visibility 10.0 miles
Clouds Clear
Dew Point 60 °F
Humidity 88%
Rainfall -999.00 in
Snow Depth Not available.
UV 0 out of 12
Pollen 5.60 out of 12
Air Quality Not available.
Flu Activity Not available.
METAR KSWW 010735Z AUTO 00000KT 10SM CLR 19/18 A3016 RMK AO2 T01910175

More Conditions Fewer Conditions

Pressure 30.16 in
Visibility 10.0 miles
Clouds Clear
Dew Point 60 °F
Humidity 88%
Rainfall -999.00 in
Snow Depth Not available.
UV 0 out of 12
Pollen 5.60 out of 12
Air Quality Not available.
Flu Activity Not available.
METAR KSWW 010735Z AUTO 00000KT 10SM CLR 19/18 A3016 RMK AO2 T01910175

More Conditions Fewer Conditions

10-Day Weather Forecast

Almanac

Astronomy

Aug. 01, 2014 Rise Set
Actual Time 6:54 AM CDT 8:40 PM CDT
Civil Twilight 6:27 AM CDT 9:07 PM CDT
Nautical Twilight 5:54 AM CDT 9:39 PM CDT
Astronomical Twilight 5:20 AM CDT 10:13 PM CDT
Moon 12:00 PM CDT 11:46 PM CDT
Length of Visible Light 14h 39m
Length of Day
13h 45m
Tomorrow will be 1m 32s shorter.
Waxing Crescent, 24% of the Moon is Illuminated
Today
Waxing Crescent
Aug 3
First Quarter
Aug 10
Full
Aug 17
Last Quarter
Aug 25
New

Today's Extremes

State Highs State Lows

Community

WunderPhotos

Upload Photos

1,739,522 photos uploaded!

Nearby

Snow Depth

Station Depth Elevation
No new snow has been reported.

Earthquake Activity

City Distance Mag. Time & Date
No recent earthquake activity has been reported nearby.
Minimum magnitude displayed is 2.5.

Coastal Water Temperatures

Place Temperature
No Stations Reporting

Nearby Weather Stations

Station Location Temp. Dew Point Humidity Wind Precip. Elev Updated Type
WT_Meso Aspermont 3NE, Aspermont, TX 64 °F 60 °F 88% WSW  at  1 mph 0.00 in / hr 1740 ft 1:55 AM CDT MADIS
WT_Meso Jayton 1S, Girard, TX 68 °F 61 °F 80% NE  at  2 mph 0.00 in / hr 2009 ft 1:40 AM CDT MADIS
RAWS JAYTON TX, Girard, TX 68 °F 62 °F 80% NNE  at  1 mph 0.00 in / hr 1904 ft 1:46 AM CDT MADIS
APRSWXNET Stamford TX , Sagerton, TX 69 °F 63 °F 80% North  at  2 mph 0.00 in / hr 1535 ft 1:50 AM CDT MADIS
4T Ranch between Anson and Roby, Hamlin, TX 63.1 °F 63 °F 99% NNW  at  1.7 mph - / hr 1834 ft 2:42 AM CDT Normal

Show More Stations Show Fewer Stations